createdAt,value
2022-09-15T02:42:07.291Z,11.70
2022-09-15T02:44:34.235Z,13.77
2022-09-15T02:47:01.954Z,10.60
2022-09-15T02:49:28.410Z,10.60
2022-09-15T02:51:54.928Z,9.97
2022-09-15T02:54:21.513Z,9.30
2022-09-15T02:56:48.069Z,11.67
2022-09-15T02:59:14.808Z,10.87
2022-09-15T03:01:41.321Z,10.67
2022-09-15T03:04:08.233Z,11.27
2022-09-15T03:06:34.770Z,12.00
2022-09-15T03:09:05.495Z,12.63
2022-09-15T03:11:33.077Z,13.17
2022-09-15T03:14:02.543Z,16.87
2022-09-15T03:16:31.349Z,15.80
2022-09-15T03:19:02.252Z,14.37
2022-09-15T03:21:29.671Z,13.77
2022-09-15T03:23:57.681Z,11.50
2022-09-15T03:26:24.233Z,11.77
2022-09-15T03:28:50.627Z,10.83
2022-09-15T03:31:17.285Z,10.90
2022-09-15T03:33:43.752Z,11.50
2022-09-15T03:36:10.163Z,11.30
2022-09-15T03:38:36.609Z,12.67
2022-09-15T03:41:07.640Z,11.03
2022-09-15T03:43:35.404Z,11.20
2022-09-15T03:46:02.322Z,11.80
2022-09-15T03:48:31.303Z,11.63
2022-09-15T03:50:57.836Z,11.57
2022-09-15T03:53:24.511Z,11.30
2022-09-15T03:55:51.681Z,10.40
2022-09-15T03:58:18.953Z,10.80
2022-09-15T04:00:46.148Z,11.57
2022-09-15T04:03:13.310Z,12.40
2022-09-15T04:05:39.819Z,13.53
2022-09-15T04:08:06.251Z,15.97
2022-09-15T04:10:32.856Z,14.33
2022-09-15T04:12:59.257Z,12.30
2022-09-15T04:15:25.726Z,14.40
2022-09-15T04:17:52.109Z,14.07
2022-09-15T04:20:18.892Z,14.77
2022-09-15T04:22:45.364Z,18.20
2022-09-15T04:25:12.025Z,20.50
2022-09-15T04:27:38.678Z,19.40
2022-09-15T04:30:07.397Z,19.00
2022-09-15T04:32:35.553Z,16.60
2022-09-15T04:35:02.852Z,15.87
2022-09-15T04:37:30.195Z,16.40
2022-09-15T04:39:56.862Z,17.10
2022-09-15T04:42:23.964Z,15.10
2022-09-15T04:44:50.659Z,15.40
2022-09-15T04:47:17.547Z,15.47
2022-09-15T04:49:44.039Z,14.80
2022-09-15T04:52:10.665Z,14.00
2022-09-15T04:54:37.354Z,14.10
2022-09-15T04:57:03.971Z,14.43
2022-09-15T04:59:30.385Z,12.00
2022-09-15T05:01:56.910Z,13.47
2022-09-15T05:04:23.378Z,12.97
2022-09-15T05:06:49.811Z,15.10
2022-09-15T05:09:16.243Z,13.60
2022-09-15T05:11:42.670Z,14.20
2022-09-15T05:14:10.439Z,13.60
2022-09-15T05:16:37.315Z,14.33
2022-09-15T05:19:04.709Z,13.37
2022-09-15T05:21:32.091Z,11.70
2022-09-15T05:23:58.546Z,14.40
2022-09-15T05:26:28.072Z,13.60
2022-09-15T05:28:56.316Z,13.27
2022-09-15T05:31:28.620Z,13.67
2022-09-15T05:33:55.282Z,14.40
2022-09-15T05:36:25.457Z,14.20
2022-09-15T05:38:58.907Z,14.00
2022-09-15T05:41:27.131Z,14.33
2022-09-15T05:43:56.862Z,14.53
2022-09-15T05:46:26.029Z,15.33
2022-09-15T05:48:54.229Z,13.87
2022-09-15T05:51:22.021Z,15.97
2022-09-15T05:53:48.640Z,15.00
2022-09-15T05:56:17.213Z,17.47
2022-09-15T05:58:45.827Z,15.10
2022-09-15T06:01:24.273Z,15.27
2022-09-15T06:03:51.735Z,16.53
2022-09-15T06:06:18.987Z,16.70
2022-09-15T06:08:51.717Z,17.90
2022-09-15T06:11:20.734Z,16.70
2022-09-15T06:13:47.814Z,17.17
2022-09-15T06:16:19.229Z,17.47
2022-09-15T06:18:47.380Z,17.70
2022-09-15T06:21:19.331Z,16.43
2022-09-15T06:23:50.532Z,17.73
2022-09-15T06:26:18.918Z,19.40
2022-09-15T06:28:53.889Z,19.93
2022-09-15T06:31:21.016Z,20.13
2022-09-15T06:33:54.096Z,21.77
2022-09-15T06:36:23.239Z,22.50
2022-09-15T06:38:50.271Z,20.37
2022-09-15T06:41:16.933Z,19.20
2022-09-15T06:43:44.442Z,20.33
2022-09-15T06:46:16.980Z,19.60
2022-09-15T06:48:48.012Z,21.00
2022-09-15T06:51:17.041Z,19.20
2022-09-15T06:53:44.066Z,19.60
2022-09-15T06:56:13.025Z,19.50
2022-09-15T06:58:40.855Z,20.80
2022-09-15T07:01:10.231Z,19.27
2022-09-15T07:03:38.553Z,20.83
2022-09-15T07:06:07.117Z,20.47
2022-09-15T07:08:34.059Z,20.90
2022-09-15T07:11:00.959Z,19.13
2022-09-15T07:13:27.451Z,19.70
2022-09-15T07:15:57.018Z,21.20
2022-09-15T07:18:24.728Z,20.20
2022-09-15T07:20:51.789Z,20.77
2022-09-15T07:23:18.976Z,21.33
2022-09-15T07:25:45.626Z,21.33
2022-09-15T07:28:12.642Z,20.57
2022-09-15T07:30:39.451Z,21.27
2022-09-15T07:33:11.512Z,21.60
2022-09-15T07:35:42.807Z,21.97
2022-09-15T07:38:09.550Z,20.20
2022-09-15T07:40:36.594Z,20.20
2022-09-15T07:43:03.073Z,21.57
2022-09-15T07:45:29.559Z,19.90
2022-09-15T07:47:56.057Z,22.60
2022-09-15T07:50:22.614Z,20.30
2022-09-15T07:52:49.155Z,22.00
2022-09-15T07:55:15.900Z,22.80
2022-09-15T07:57:42.319Z,23.27
2022-09-15T08:00:09.343Z,23.53
2022-09-15T08:02:36.269Z,22.30
2022-09-15T08:05:02.799Z,22.73
2022-09-15T08:07:29.280Z,23.73
2022-09-15T08:09:55.751Z,37.30
2022-09-15T08:12:22.213Z,23.57
2022-09-15T08:14:48.655Z,23.33
2022-09-15T08:17:15.228Z,22.80
2022-09-15T08:19:41.760Z,23.10
2022-09-15T08:22:08.205Z,22.00
2022-09-15T08:24:34.827Z,21.30
2022-09-15T08:27:01.236Z,23.70
2022-09-15T08:29:28.367Z,24.20
2022-09-15T08:31:54.819Z,23.63
2022-09-15T08:34:21.584Z,23.60
2022-09-15T08:36:48.005Z,25.10
2022-09-15T08:39:14.480Z,24.80
2022-09-15T08:41:46.656Z,26.00
2022-09-15T08:44:34.965Z,24.80
2022-09-15T08:47:05.569Z,25.20
2022-09-15T08:49:51.531Z,25.73
2022-09-15T08:52:26.667Z,23.43
2022-09-15T08:54:57.307Z,21.77
2022-09-15T08:57:25.981Z,23.47
2022-09-15T08:59:54.746Z,23.27
2022-09-15T09:02:35.014Z,23.10
2022-09-15T09:05:30.072Z,22.17
2022-09-15T09:08:14.064Z,22.07
2022-09-15T09:10:58.892Z,21.90
2022-09-15T09:13:35.375Z,20.80
2022-09-15T09:16:30.142Z,20.57
2022-09-15T09:19:18.427Z,16.63
2022-09-15T09:21:51.708Z,17.30
2022-09-15T09:24:45.677Z,18.70
2022-09-15T09:27:14.943Z,16.50
2022-09-15T09:29:50.007Z,14.00
2022-09-15T09:32:23.766Z,13.17
2022-09-15T09:35:13.235Z,13.23
2022-09-15T09:37:39.732Z,12.87
2022-09-15T09:40:06.870Z,10.77
2022-09-15T09:42:37.145Z,10.10
2022-09-15T09:45:05.884Z,10.33
2022-09-15T09:47:34.980Z,10.20
2022-09-15T09:50:02.168Z,10.00
2022-09-15T09:52:36.794Z,6.67
2022-09-15T09:55:18.390Z,6.37
2022-09-15T09:57:44.857Z,7.00
2022-09-15T10:00:31.357Z,7.10
2022-09-15T10:02:58.227Z,7.13
2022-09-15T10:05:24.856Z,6.97
2022-09-15T10:07:51.372Z,7.67
2022-09-15T10:10:23.923Z,7.17
2022-09-15T10:12:55.469Z,6.80
2022-09-15T10:15:26.056Z,6.23
2022-09-15T10:17:55.174Z,5.27
2022-09-15T10:20:32.686Z,4.30
2022-09-15T10:23:29.758Z,4.40
2022-09-15T10:26:17.712Z,4.10
2022-09-15T10:28:45.898Z,2.77
2022-09-15T10:31:25.459Z,3.00
2022-09-15T10:33:52.635Z,2.07
2022-09-15T10:36:23.654Z,2.03
2022-09-15T10:39:01.217Z,3.00
2022-09-15T10:41:30.184Z,2.90
2022-09-15T10:44:21.271Z,2.50
2022-09-15T10:47:09.120Z,2.20
2022-09-15T10:49:55.063Z,2.40
2022-09-15T10:52:21.500Z,2.20
2022-09-15T10:54:57.120Z,2.37
2022-09-15T10:57:47.451Z,2.40
2022-09-15T11:00:25.610Z,3.00
2022-09-15T11:03:11.637Z,2.20
2022-09-15T11:05:59.196Z,2.20
2022-09-15T11:08:42.659Z,2.47
2022-09-15T11:11:30.935Z,1.70
2022-09-15T11:14:23.131Z,2.00
2022-09-15T11:16:59.896Z,2.43
2022-09-15T11:20:05.649Z,1.97
2022-09-15T11:22:46.070Z,2.37
2022-09-15T11:25:20.366Z,2.40
2022-09-15T11:28:06.623Z,2.03
2022-09-15T11:30:57.132Z,2.10
2022-09-15T11:34:02.712Z,2.10
2022-09-15T11:36:58.419Z,2.20
2022-09-15T11:39:31.033Z,2.37
2022-09-15T11:42:32.028Z,2.00
2022-09-15T11:45:00.784Z,2.50
2022-09-15T11:47:59.708Z,2.30
2022-09-15T11:50:35.194Z,4.53
2022-09-15T11:53:01.571Z,2.23
2022-09-15T11:56:10.105Z,2.70
2022-09-15T11:58:44.575Z,2.27
2022-09-15T12:01:10.937Z,1.83
2022-09-15T12:03:47.028Z,1.93
2022-09-15T12:06:45.354Z,2.20
2022-09-15T12:09:15.843Z,2.13
2022-09-15T12:11:49.578Z,2.00
2022-09-15T12:14:22.746Z,2.00
2022-09-15T12:16:49.874Z,1.93
2022-09-15T12:19:33.377Z,2.17
2022-09-15T12:22:17.818Z,1.97
2022-09-15T12:24:52.970Z,1.83
2022-09-15T12:27:20.810Z,2.20
2022-09-15T12:29:56.217Z,2.30
2022-09-15T12:32:24.704Z,2.07
2022-09-15T12:34:58.916Z,2.03
2022-09-15T12:37:29.964Z,2.10
2022-09-15T12:39:56.689Z,2.20
2022-09-15T12:42:31.372Z,2.40
2022-09-15T12:45:19.495Z,2.17
2022-09-15T12:47:55.027Z,2.20
2022-09-15T12:50:31.560Z,2.23
2022-09-15T12:53:14.303Z,2.37
2022-09-15T12:56:00.931Z,2.37
2022-09-15T12:58:47.300Z,2.30
2022-09-15T13:01:23.099Z,2.20
2022-09-15T13:03:49.617Z,2.43
2022-09-15T13:06:22.990Z,3.20
2022-09-15T13:08:51.010Z,1.70
2022-09-15T13:11:23.384Z,2.10
2022-09-15T13:14:08.149Z,2.37
2022-09-15T13:16:46.666Z,1.97
2022-09-15T13:19:25.294Z,2.00
2022-09-15T13:22:11.965Z,3.23
2022-09-15T13:25:01.421Z,2.07
2022-09-15T13:27:36.308Z,2.20
2022-09-15T13:30:24.252Z,2.20
2022-09-15T13:33:01.613Z,2.00
2022-09-15T13:35:55.376Z,2.87
2022-09-15T13:38:43.883Z,2.40
2022-09-15T13:41:48.524Z,2.83
2022-09-15T13:44:33.684Z,2.67
2022-09-15T13:47:43.179Z,2.30
2022-09-15T13:50:33.794Z,2.27
2022-09-15T13:53:15.031Z,2.93
2022-09-15T13:55:43.235Z,4.70
2022-09-15T14:01:07.543Z,2.73
2022-09-15T14:03:36.935Z,2.60
2022-09-15T14:06:12.073Z,3.10
2022-09-15T14:08:40.645Z,2.70
2022-09-15T14:11:12.151Z,2.63
2022-09-15T14:13:43.545Z,2.63
2022-09-15T14:16:27.851Z,2.90
2022-09-15T14:18:57.686Z,2.17
2022-09-15T14:21:27.056Z,1.90
2022-09-15T14:23:56.028Z,2.23
2022-09-15T14:26:26.095Z,2.63
2022-09-15T14:29:02.036Z,2.20
2022-09-15T14:31:33.287Z,2.30
2022-09-15T14:34:01.584Z,2.10
2022-09-15T14:36:33.008Z,1.90
2022-09-15T14:39:20.596Z,1.93
2022-09-15T14:41:47.884Z,2.20
2022-09-15T14:47:13.230Z,2.30
2022-09-15T14:49:40.071Z,2.20
2022-09-15T14:52:21.990Z,2.63
2022-09-15T14:54:50.040Z,2.93
2022-09-15T14:57:20.452Z,3.00
2022-09-15T14:59:55.338Z,1.90
2022-09-15T15:02:33.420Z,2.40
2022-09-15T15:05:19.338Z,2.40
2022-09-15T15:07:46.266Z,2.67
2022-09-15T15:10:32.179Z,2.40
2022-09-15T15:13:04.852Z,2.33
2022-09-15T15:15:32.571Z,1.97
2022-09-15T15:17:59.234Z,2.23
2022-09-15T15:20:28.398Z,2.30
2022-09-15T15:23:22.275Z,2.70
2022-09-15T15:25:48.967Z,2.03
2022-09-15T15:28:35.954Z,1.83
2022-09-15T15:31:15.371Z,2.30
2022-09-15T15:34:06.268Z,2.80
2022-09-15T15:36:35.634Z,1.80
2022-09-15T15:39:05.672Z,1.80
2022-09-15T15:41:40.685Z,1.70
2022-09-15T15:44:28.313Z,1.50
2022-09-15T15:46:56.178Z,2.00
2022-09-15T15:49:29.344Z,1.90
2022-09-15T15:51:57.667Z,2.37
2022-09-15T15:54:25.132Z,1.60
2022-09-15T15:56:53.039Z,1.97
2022-09-15T15:59:20.269Z,2.10
2022-09-15T16:01:51.003Z,1.90
2022-09-15T16:04:17.467Z,2.10
2022-09-15T16:06:45.057Z,1.77
2022-09-15T16:09:14.672Z,1.87
2022-09-15T16:11:42.900Z,2.00
2022-09-15T16:14:13.374Z,1.83
2022-09-15T16:16:39.951Z,1.80
2022-09-15T16:19:07.710Z,1.73
2022-09-15T16:21:39.865Z,1.77
2022-09-15T16:24:12.415Z,1.90
2022-09-15T16:26:39.516Z,1.50
2022-09-15T16:29:06.254Z,1.90
2022-09-15T16:31:33.683Z,2.33
2022-09-15T16:34:00.448Z,1.87
2022-09-15T16:36:27.175Z,2.17
2022-09-15T16:38:53.825Z,2.20
2022-09-15T16:41:25.773Z,1.90
2022-09-15T16:43:55.916Z,2.10
2022-09-15T16:46:22.577Z,2.20
2022-09-15T16:48:49.371Z,2.00
2022-09-15T16:51:34.240Z,2.10
2022-09-15T16:54:00.716Z,2.10
2022-09-15T16:56:27.756Z,2.20
2022-09-15T16:58:59.474Z,2.57
2022-09-15T17:01:26.560Z,2.10
2022-09-15T17:03:53.019Z,2.50
2022-09-15T17:06:19.536Z,2.50
2022-09-15T17:08:46.048Z,2.23
2022-09-15T17:11:16.686Z,2.50
2022-09-15T17:13:44.584Z,2.40
2022-09-15T17:16:13.465Z,1.80
2022-09-15T17:18:39.958Z,1.57
2022-09-15T17:21:06.428Z,2.00
2022-09-15T17:23:38.915Z,2.00
2022-09-15T17:26:30.585Z,2.20
2022-09-15T17:28:58.233Z,1.67
2022-09-15T17:31:25.082Z,1.60
2022-09-15T17:33:51.858Z,2.43
2022-09-15T17:36:18.926Z,1.67
2022-09-15T17:38:45.989Z,2.07
2022-09-15T17:41:17.579Z,3.17
2022-09-15T17:43:44.108Z,10.93
2022-09-15T17:46:10.641Z,1.60
2022-09-15T17:48:38.827Z,2.10
2022-09-15T17:51:12.437Z,2.10
2022-09-15T17:53:38.832Z,1.63
2022-09-15T17:56:05.352Z,1.83
2022-09-15T17:58:31.949Z,1.63
2022-09-15T18:00:59.130Z,1.90
2022-09-15T18:03:34.992Z,1.83
2022-09-15T18:06:05.350Z,1.50
2022-09-15T18:08:38.709Z,2.40
2022-09-15T18:11:06.750Z,2.00
2022-09-15T18:13:38.133Z,2.03
2022-09-15T18:16:12.691Z,2.03
2022-09-15T18:18:40.611Z,1.50
2022-09-15T18:21:09.757Z,1.83
2022-09-15T18:23:44.838Z,1.97
2022-09-15T18:26:11.283Z,2.60
2022-09-15T18:28:37.773Z,2.23
2022-09-15T18:31:04.286Z,1.80
2022-09-15T18:33:31.099Z,1.97
2022-09-15T18:36:01.458Z,2.03
2022-09-15T18:38:27.859Z,2.07
2022-09-15T18:40:56.806Z,1.90
2022-09-15T18:43:26.330Z,1.90
2022-09-15T18:45:57.748Z,1.53
2022-09-15T18:48:24.196Z,2.00
2022-09-15T18:50:50.813Z,2.07
2022-09-15T18:53:17.365Z,1.70
2022-09-15T18:55:43.884Z,2.20
2022-09-15T18:58:11.937Z,2.03
2022-09-15T19:00:39.044Z,2.33
2022-09-15T19:03:06.857Z,2.00
2022-09-15T19:05:33.667Z,1.60
2022-09-15T19:08:01.613Z,1.80
2022-09-15T19:10:28.144Z,1.83
2022-09-15T19:12:55.083Z,2.10
2022-09-15T19:15:24.628Z,4.20
2022-09-15T19:17:51.424Z,1.60
2022-09-15T19:20:18.080Z,1.77
2022-09-15T19:22:44.576Z,1.87
2022-09-15T19:25:11.669Z,1.70
2022-09-15T19:27:39.522Z,2.00
2022-09-15T19:30:09.795Z,2.37
2022-09-15T19:32:37.166Z,1.90
2022-09-15T19:35:04.207Z,1.87
2022-09-15T19:37:30.688Z,1.60
2022-09-15T19:39:57.166Z,2.00
2022-09-15T19:42:23.651Z,1.90
2022-09-15T19:44:50.434Z,2.07
2022-09-15T19:47:16.952Z,2.03
2022-09-15T19:49:43.361Z,2.03
2022-09-15T19:52:09.832Z,2.07
2022-09-15T19:54:36.691Z,2.10
2022-09-15T19:57:03.782Z,2.83
2022-09-15T19:59:31.850Z,2.30
2022-09-15T20:01:59.670Z,1.80
2022-09-15T20:04:26.811Z,1.90
2022-09-15T20:06:53.267Z,2.10
2022-09-15T20:09:19.701Z,1.80
2022-09-15T20:11:46.331Z,2.13
2022-09-15T20:14:13.587Z,1.90
2022-09-15T20:16:40.411Z,2.03
2022-09-15T20:19:06.996Z,2.20
2022-09-15T20:21:52.016Z,2.00
2022-09-15T20:24:20.180Z,1.60
2022-09-15T20:26:46.710Z,2.20
2022-09-15T20:29:13.535Z,1.60
2022-09-15T20:31:40.580Z,2.20
2022-09-15T20:34:07.047Z,1.90
2022-09-15T20:36:36.421Z,1.83
2022-09-15T20:39:05.843Z,1.83
2022-09-15T20:41:32.450Z,1.97
2022-09-15T20:44:00.130Z,2.10
2022-09-15T20:46:29.222Z,1.87
2022-09-15T20:48:55.684Z,3.03
2022-09-15T20:51:25.505Z,1.87
2022-09-15T20:53:54.228Z,2.10
2022-09-15T20:56:25.415Z,1.63
2022-09-15T20:58:53.861Z,1.93
2022-09-15T21:01:23.862Z,2.13
2022-09-15T21:03:50.812Z,1.77
2022-09-15T21:06:20.109Z,1.80
2022-09-15T21:08:48.083Z,2.10
2022-09-15T21:11:15.880Z,1.80
2022-09-15T21:13:43.436Z,1.70
2022-09-15T21:16:16.036Z,1.70
2022-09-15T21:18:43.723Z,1.80
2022-09-15T21:21:13.539Z,1.60
2022-09-15T21:23:45.424Z,2.00
2022-09-15T21:26:14.754Z,1.80
2022-09-15T21:28:43.434Z,1.60
2022-09-15T21:31:15.422Z,2.17
2022-09-15T21:33:43.300Z,1.60
2022-09-15T21:36:11.436Z,1.70
2022-09-15T21:38:40.396Z,1.77
2022-09-15T21:41:09.231Z,1.43
2022-09-15T21:43:39.447Z,1.87
2022-09-15T21:46:08.609Z,2.20
2022-09-15T21:48:35.829Z,1.57
2022-09-15T21:51:04.623Z,1.87
2022-09-15T21:53:32.142Z,1.97
2022-09-15T21:56:04.234Z,2.00
2022-09-15T21:58:41.750Z,1.40
2022-09-15T22:01:09.468Z,1.83
2022-09-15T22:03:37.556Z,1.70
2022-09-15T22:06:04.066Z,1.50
2022-09-15T22:08:31.034Z,1.80
2022-09-15T22:11:01.183Z,1.77
2022-09-15T22:13:28.191Z,1.50
2022-09-15T22:16:06.254Z,1.67
2022-09-15T22:18:35.551Z,2.23
2022-09-15T22:21:15.069Z,1.67
2022-09-15T22:23:42.802Z,1.90
2022-09-15T22:26:15.676Z,2.07
2022-09-15T22:28:42.593Z,1.50
2022-09-15T22:31:10.875Z,1.77
2022-09-15T22:33:40.834Z,1.83
2022-09-15T22:36:11.872Z,1.73
2022-09-15T22:38:38.713Z,2.70
2022-09-15T22:41:08.964Z,2.53
2022-09-15T22:43:36.732Z,1.60
2022-09-15T22:46:04.041Z,1.87
2022-09-15T22:48:30.567Z,1.63
2022-09-15T22:50:57.165Z,1.57
2022-09-15T22:53:23.907Z,1.87
2022-09-15T22:55:50.815Z,1.90
2022-09-15T22:58:17.297Z,2.03
2022-09-15T23:00:43.798Z,2.77
2022-09-15T23:03:11.393Z,2.23
2022-09-15T23:05:38.206Z,1.90
2022-09-15T23:08:05.492Z,1.90
2022-09-15T23:10:32.807Z,2.00
2022-09-15T23:13:01.752Z,1.63
2022-09-15T23:15:29.063Z,2.07
2022-09-15T23:17:55.479Z,2.07
2022-09-15T23:20:22.746Z,1.77
2022-09-15T23:22:49.227Z,1.60
2022-09-15T23:25:17.622Z,2.13
2022-09-15T23:27:44.341Z,1.73
2022-09-15T23:30:12.348Z,1.90
2022-09-15T23:32:39.932Z,2.03
2022-09-15T23:35:07.027Z,1.77
2022-09-15T23:37:33.538Z,2.17
2022-09-15T23:40:00.718Z,2.60
2022-09-15T23:42:27.318Z,1.97
2022-09-15T23:44:53.718Z,1.90
2022-09-15T23:47:20.119Z,1.60
2022-09-15T23:49:46.506Z,1.97
2022-09-15T23:52:12.947Z,1.80
2022-09-15T23:54:39.361Z,1.90
2022-09-15T23:57:05.845Z,1.57
2022-09-15T23:59:32.277Z,1.80
